Time;durP1;ratioP1;P1;durP2;ratioP2;P2;SDS_P1;SDS_P2;PMS_P1;PMS_P2;Temp;Humidity;BMP_temperature;BMP_pressure;BME280_temperature;BME280_humidity;BME280_pressure;Samples;Min_cycle;Max_cycle;Signal;HPM_P1;HPM_P2
2022/04/29 00:02:14;;;;;;;15.77;7.83;;;8.70;99.90;;;;;;4972471;28;38841;-72
2022/04/29 00:04:40;;;;;;;10.17;5.87;;;8.60;99.90;;;;;;4972352;28;39160;-73
2022/04/29 00:07:08;;;;;;;10.97;6.40;;;8.60;99.90;;;;;;4955433;28;37529;-73
2022/04/29 00:09:35;;;;;;;12.40;6.67;;;8.60;99.90;;;;;;4937600;28;36097;-73
2022/04/29 00:12:03;;;;;;;14.20;7.03;;;8.50;99.90;;;;;;4966022;28;37927;-73
2022/04/29 00:14:30;;;;;;;10.67;6.57;;;8.50;99.90;;;;;;4953770;28;48240;-75
2022/04/29 00:16:56;;;;;;;11.87;6.53;;;8.50;99.90;;;;;;4956512;28;37242;-75
2022/04/29 00:19:23;;;;;;;14.60;6.93;;;8.50;99.90;;;;;;4954806;28;37548;-73
2022/04/29 00:21:49;;;;;;;11.60;6.50;;;8.40;99.90;;;;;;4976017;28;42179;-74
2022/04/29 00:24:16;;;;;;;16.13;7.00;;;8.40;99.90;;;;;;4973994;28;40066;-75
2022/04/29 00:26:42;;;;;;;9.37;6.50;;;8.40;99.90;;;;;;4977819;28;39079;-72
2022/04/29 00:29:09;;;;;;;14.87;6.97;;;8.30;99.90;;;;;;4974376;28;37151;-73
2022/04/29 00:31:35;;;;;;;15.33;6.87;;;8.30;99.90;;;;;;4955316;28;37909;-73
2022/04/29 00:34:02;;;;;;;16.93;7.23;;;8.30;99.90;;;;;;4956596;28;38710;-74
2022/04/29 00:36:28;;;;;;;12.23;7.03;;;8.30;99.90;;;;;;4954770;28;47481;-74
2022/04/29 00:38:54;;;;;;;14.30;6.57;;;8.30;99.90;;;;;;4981645;28;37286;-74
2022/04/29 00:41:22;;;;;;;11.07;6.70;;;8.30;99.90;;;;;;4964529;28;38843;-74
2022/04/29 00:44:05;;;;;;;12.90;6.57;;;8.20;99.90;;;;;;4981779;28;37514;-75
2022/04/29 00:46:40;;;;;;;11.50;6.20;;;8.20;99.90;;;;;;4961150;28;47478;-75
2022/04/29 00:49:09;;;;;;;14.17;7.53;;;8.20;99.90;;;;;;4961413;28;37760;-74
2022/04/29 00:51:36;;;;;;;13.60;6.33;;;8.20;99.90;;;;;;4952381;28;40927;-74
2022/04/29 00:54:06;;;;;;;11.67;6.33;;;8.10;99.90;;;;;;4976064;28;39679;-75
2022/04/29 00:56:40;;;;;;;12.30;6.30;;;8.10;99.90;;;;;;4972713;28;38737;-74
2022/04/29 00:59:21;;;;;;;10.50;5.63;;;8.10;99.90;;;;;;4971864;28;38196;-74
2022/04/29 01:01:50;;;;;;;13.40;7.07;;;8.10;99.90;;;;;;4973665;28;39131;-74
2022/04/29 01:04:24;;;;;;;15.37;6.27;;;8.10;99.90;;;;;;4973106;28;38308;-74
2022/04/29 01:06:50;;;;;;;17.57;6.07;;;8.10;99.90;;;;;;4953140;28;39040;-74
2022/04/29 01:09:17;;;;;;;13.87;6.53;;;8.00;99.90;;;;;;4975715;28;38718;-74
2022/04/29 01:11:43;;;;;;;14.23;6.50;;;8.00;99.90;;;;;;4962177;28;39605;-74
2022/04/29 01:14:09;;;;;;;19.47;6.90;;;8.00;99.90;;;;;;4956613;28;39875;-74
2022/04/29 01:16:35;;;;;;;10.73;6.60;;;8.00;99.90;;;;;;4955454;28;39412;-75
2022/04/29 01:19:01;;;;;;;11.80;5.97;;;8.00;99.90;;;;;;4957542;28;37653;-74
2022/04/29 01:21:27;;;;;;;9.67;6.33;;;8.00;99.90;;;;;;4964628;28;46440;-74
2022/04/29 01:23:53;;;;;;;16.20;7.20;;;7.90;99.90;;;;;;4982815;28;38301;-74
2022/04/29 01:26:19;;;;;;;8.97;6.07;;;7.90;99.90;;;;;;4978486;28;38520;-74
2022/04/29 01:28:46;;;;;;;13.73;6.10;;;7.90;99.90;;;;;;4981587;28;36858;-74
2022/04/29 01:31:14;;;;;;;11.53;7.20;;;7.90;99.90;;;;;;4962186;28;40824;-75
2022/04/29 01:33:47;;;;;;;16.90;6.93;;;7.90;99.90;;;;;;4975737;28;38706;-74
2022/04/29 01:36:13;;;;;;;23.83;7.50;;;7.80;99.90;;;;;;4958326;28;38594;-74
2022/04/29 01:38:39;;;;;;;12.77;6.60;;;7.80;99.90;;;;;;4976940;28;36968;-74
2022/04/29 01:41:06;;;;;;;15.43;7.20;;;7.90;99.90;;;;;;4966242;28;39678;-74
2022/04/29 01:43:33;;;;;;;13.63;6.97;;;7.80;99.90;;;;;;4964668;28;40127;-74
2022/04/29 01:46:01;;;;;;;14.63;6.70;;;7.80;99.90;;;;;;4976739;28;38276;-74
2022/04/29 01:48:27;;;;;;;10.87;6.43;;;7.80;99.90;;;;;;4974407;28;46836;-74
2022/04/29 01:50:54;;;;;;;15.27;6.53;;;7.70;99.90;;;;;;4961323;28;39710;-74
2022/04/29 01:53:20;;;;;;;17.07;6.20;;;7.70;99.90;;;;;;4984215;28;38756;-74
2022/04/29 01:55:47;;;;;;;17.57;7.70;;;7.70;99.90;;;;;;4961854;28;37412;-74
2022/04/29 01:58:13;;;;;;;11.43;7.20;;;7.70;99.90;;;;;;4959365;28;38546;-74
2022/04/29 02:00:40;;;;;;;12.30;7.03;;;7.70;99.90;;;;;;4959576;28;40110;-74
2022/04/29 02:03:06;;;;;;;15.80;7.03;;;7.70;99.90;;;;;;4985791;28;38853;-74
2022/04/29 02:05:33;;;;;;;14.77;7.47;;;7.70;99.90;;;;;;4980216;28;38955;-74
2022/04/29 02:08:00;;;;;;;12.23;7.23;;;7.70;99.90;;;;;;4978224;28;38112;-75
2022/04/29 02:10:26;;;;;;;16.50;7.77;;;7.60;99.90;;;;;;4979703;28;42729;-74
2022/04/29 02:12:53;;;;;;;16.20;7.17;;;7.70;99.90;;;;;;4961935;28;39328;-74
2022/04/29 02:15:20;;;;;;;11.40;7.47;;;7.60;99.90;;;;;;4976287;28;38965;-74
2022/04/29 02:17:46;;;;;;;15.43;8.03;;;7.60;99.90;;;;;;4979096;28;38477;-74
2022/04/29 02:20:12;;;;;;;13.37;7.67;;;7.60;99.90;;;;;;4962275;28;39390;-75
2022/04/29 02:22:42;;;;;;;17.80;7.50;;;7.60;99.90;;;;;;4960782;28;39692;-73
2022/04/29 02:25:08;;;;;;;14.30;7.80;;;7.60;99.90;;;;;;4965290;28;38339;-72
2022/04/29 02:27:36;;;;;;;15.40;7.47;;;7.60;99.90;;;;;;4984660;28;37189;-74
2022/04/29 02:30:04;;;;;;;12.40;7.97;;;7.60;99.90;;;;;;4973539;28;38790;-75
2022/04/29 02:32:31;;;;;;;15.07;7.30;;;7.60;99.90;;;;;;4981705;28;39690;-74
2022/04/29 02:34:58;;;;;;;12.17;7.73;;;7.60;99.90;;;;;;4982644;28;38851;-74
2022/04/29 02:37:24;;;;;;;13.90;7.50;;;7.60;99.90;;;;;;4973992;28;37023;-74
2022/04/29 02:39:51;;;;;;;15.00;8.03;;;7.60;99.90;;;;;;4961523;28;38961;-74
2022/04/29 02:42:17;;;;;;;15.60;7.30;;;7.60;99.90;;;;;;4980318;28;39535;-74
2022/04/29 02:44:43;;;;;;;12.13;7.17;;;7.60;99.90;;;;;;4977298;28;39647;-74
2022/04/29 02:47:09;;;;;;;15.63;8.30;;;7.60;99.90;;;;;;4980934;28;36894;-74
2022/04/29 02:49:43;;;;;;;12.90;7.90;;;7.60;99.90;;;;;;4958699;28;38958;-74
2022/04/29 02:52:11;;;;;;;14.87;7.90;;;7.60;99.90;;;;;;4975592;28;37755;-74
2022/04/29 02:54:38;;;;;;;9.73;7.43;;;7.50;99.90;;;;;;4975563;28;39415;-74
2022/04/29 02:57:04;;;;;;;13.23;7.70;;;7.50;99.90;;;;;;4985736;28;37188;-75
2022/04/29 02:59:31;;;;;;;15.77;8.53;;;7.50;99.90;;;;;;4953254;28;39363;-74
2022/04/29 03:01:57;;;;;;;15.33;8.87;;;7.40;99.90;;;;;;4983418;28;38674;-74
2022/04/29 03:04:24;;;;;;;16.70;8.93;;;7.40;99.90;;;;;;4964332;28;37611;-74
2022/04/29 03:06:50;;;;;;;15.17;9.13;;;7.40;99.90;;;;;;4981506;28;37054;-74
2022/04/29 03:09:16;;;;;;;21.43;9.73;;;7.40;99.90;;;;;;4957853;28;37446;-74
2022/04/29 03:11:43;;;;;;;12.37;8.80;;;7.40;99.90;;;;;;4986043;28;39837;-74
2022/04/29 03:14:09;;;;;;;14.00;9.23;;;7.40;99.90;;;;;;4948195;28;37504;-74
2022/04/29 03:16:35;;;;;;;18.47;9.03;;;7.40;99.90;;;;;;4979946;28;37183;-74
2022/04/29 03:19:02;;;;;;;18.27;9.23;;;7.40;99.90;;;;;;4976719;28;37511;-74
2022/04/29 03:21:28;;;;;;;17.13;9.03;;;7.30;99.90;;;;;;4961333;28;47186;-74
2022/04/29 03:23:54;;;;;;;15.63;9.70;;;7.40;99.90;;;;;;4980723;28;38878;-74
2022/04/29 03:26:20;;;;;;;16.57;10.97;;;7.40;99.90;;;;;;4976375;28;36761;-74
2022/04/29 03:28:46;;;;;;;15.83;9.73;;;7.40;99.90;;;;;;4974454;28;41354;-74
2022/04/29 03:31:12;;;;;;;16.43;10.00;;;7.40;99.90;;;;;;4979605;28;39800;-73
2022/04/29 03:33:38;;;;;;;20.43;10.30;;;7.40;99.90;;;;;;4984046;28;38634;-74
2022/04/29 03:36:05;;;;;;;16.70;10.30;;;7.40;99.90;;;;;;4972573;28;37405;-74
2022/04/29 03:38:31;;;;;;;21.17;11.10;;;7.40;99.90;;;;;;4963638;28;37652;-74
2022/04/29 03:40:57;;;;;;;14.17;10.10;;;7.40;99.90;;;;;;4980870;28;39076;-74
2022/04/29 03:43:23;;;;;;;17.47;10.17;;;7.40;99.90;;;;;;4980453;28;37614;-74
2022/04/29 03:45:50;;;;;;;14.13;9.77;;;7.40;99.90;;;;;;4982124;28;37426;-73
2022/04/29 03:48:16;;;;;;;16.47;9.93;;;7.40;99.90;;;;;;4968332;28;37740;-74
2022/04/29 03:50:42;;;;;;;14.90;9.27;;;7.40;99.90;;;;;;4966719;28;38940;-74
2022/04/29 03:53:08;;;;;;;18.80;10.10;;;7.40;99.90;;;;;;4980875;28;38620;-75
2022/04/29 03:55:35;;;;;;;14.10;10.07;;;7.30;99.90;;;;;;4980707;28;37125;-75
2022/04/29 03:58:02;;;;;;;18.40;9.67;;;7.30;99.90;;;;;;4974569;28;38763;-74
2022/04/29 04:00:33;;;;;;;18.57;10.67;;;7.30;99.90;;;;;;4957700;28;47224;-74
2022/04/29 04:03:00;;;;;;;24.27;12.00;;;7.30;99.90;;;;;;4981167;28;38386;-74
2022/04/29 04:05:28;;;;;;;13.40;9.63;;;7.20;99.90;;;;;;4982305;28;47108;-74
2022/04/29 04:07:55;;;;;;;19.00;10.27;;;7.20;99.90;;;;;;4976602;28;39614;-73
2022/04/29 04:10:21;;;;;;;24.30;10.70;;;7.20;99.90;;;;;;4977198;28;38767;-74
2022/04/29 04:12:49;;;;;;;19.77;10.37;;;7.20;99.90;;;;;;4980137;28;39272;-74
2022/04/29 04:15:17;;;;;;;18.80;10.33;;;7.20;99.90;;;;;;4960862;28;36767;-74
2022/04/29 04:17:44;;;;;;;18.03;10.73;;;7.20;99.90;;;;;;4952786;28;37865;-74
2022/04/29 04:20:12;;;;;;;13.83;10.10;;;7.20;99.90;;;;;;4965898;28;39501;-74
2022/04/29 04:22:38;;;;;;;19.07;10.67;;;7.20;99.90;;;;;;4974719;28;38877;-74
2022/04/29 04:25:10;;;;;;;21.57;10.47;;;7.20;99.90;;;;;;4978357;28;37215;-74
2022/04/29 04:27:37;;;;;;;15.05;10.20;;;7.10;99.90;;;;;;4941587;28;40047;-74
2022/04/29 04:30:04;;;;;;;14.90;9.73;;;7.10;99.90;;;;;;4977355;28;38150;-74
2022/04/29 04:32:34;;;;;;;20.90;11.03;;;7.10;99.90;;;;;;4954457;28;38661;-74
2022/04/29 04:35:00;;;;;;;22.50;10.87;;;7.10;99.90;;;;;;4981813;28;38129;-74
2022/04/29 04:37:28;;;;;;;20.63;10.30;;;7.00;99.90;;;;;;4975002;28;38818;-74
2022/04/29 04:39:58;;;;;;;23.43;10.33;;;7.00;99.90;;;;;;4959216;28;37712;-74
2022/04/29 04:42:24;;;;;;;22.10;10.77;;;7.00;99.90;;;;;;4956720;28;37433;-74
2022/04/29 04:44:51;;;;;;;15.70;9.80;;;7.00;99.90;;;;;;4972459;28;36756;-74
2022/04/29 04:47:18;;;;;;;14.37;10.20;;;7.00;99.90;;;;;;4976897;28;38780;-74
2022/04/29 04:49:44;;;;;;;21.77;11.10;;;7.00;99.90;;;;;;4963818;28;39992;-74
2022/04/29 04:52:10;;;;;;;19.40;10.47;;;7.00;99.90;;;;;;4980874;28;38929;-74
2022/04/29 04:54:37;;;;;;;16.43;9.70;;;7.00;99.90;;;;;;4960728;28;37656;-74
2022/04/29 04:57:04;;;;;;;20.47;10.50;;;7.00;99.90;;;;;;4980309;28;38903;-74
2022/04/29 04:59:30;;;;;;;17.33;9.60;;;7.10;99.90;;;;;;4980684;28;38124;-74
2022/04/29 05:01:57;;;;;;;17.63;10.30;;;7.20;99.90;;;;;;4960851;28;38886;-74
2022/04/29 05:04:23;;;;;;;19.73;10.60;;;7.20;99.90;;;;;;4980611;28;39121;-74
2022/04/29 05:06:51;;;;;;;15.80;9.73;;;7.20;99.90;;;;;;4979451;28;40519;-74
2022/04/29 05:09:17;;;;;;;19.17;9.93;;;7.20;99.90;;;;;;4977109;28;39070;-74
2022/04/29 05:11:43;;;;;;;20.80;10.00;;;7.30;99.90;;;;;;4975078;28;39128;-74
2022/04/29 05:14:09;;;;;;;18.30;10.30;;;7.30;99.90;;;;;;4980870;28;38128;-74
2022/04/29 05:16:35;;;;;;;20.33;10.60;;;7.40;99.90;;;;;;4979367;28;38130;-73
2022/04/29 05:19:01;;;;;;;15.27;9.77;;;7.50;99.90;;;;;;4975106;28;39012;-74
2022/04/29 05:21:28;;;;;;;15.03;8.47;;;7.60;99.90;;;;;;4961042;28;46817;-73
2022/04/29 05:23:54;;;;;;;19.87;9.17;;;7.70;99.90;;;;;;4964774;28;37007;-73
2022/04/29 05:26:20;;;;;;;15.30;9.00;;;7.80;99.90;;;;;;4967074;28;38532;-73
2022/04/29 05:28:46;;;;;;;17.83;9.40;;;7.80;99.90;;;;;;4960904;28;41327;-74
2022/04/29 05:31:12;;;;;;;15.83;8.80;;;7.80;99.90;;;;;;4978344;28;38507;-73
2022/04/29 05:33:38;;;;;;;15.10;8.37;;;7.80;99.90;;;;;;4960058;28;38927;-73
2022/04/29 05:36:07;;;;;;;14.57;7.83;;;7.90;99.90;;;;;;4950351;28;38927;-74
2022/04/29 05:44:06;;;;;;;14.83;7.97;;;8.00;99.90;;;;;;4977185;28;38448;-74
2022/04/29 05:46:32;;;;;;;18.03;7.57;;;8.00;99.90;;;;;;4959867;28;40589;-73
2022/04/29 05:48:58;;;;;;;17.67;9.30;;;8.00;99.90;;;;;;4960187;28;38688;-74
2022/04/29 05:51:24;;;;;;;14.23;8.63;;;8.00;99.90;;;;;;4981222;28;38795;-73
2022/04/29 05:53:51;;;;;;;20.47;8.70;;;8.00;99.90;;;;;;4976763;28;37208;-73
2022/04/29 05:56:17;;;;;;;19.80;8.00;;;8.10;99.90;;;;;;4979970;28;39592;-74
2022/04/29 05:58:43;;;;;;;14.20;8.10;;;8.20;99.90;;;;;;4978878;28;38741;-73
2022/04/29 06:01:09;;;;;;;15.63;8.27;;;8.20;99.90;;;;;;4982354;28;39438;-74
2022/04/29 06:03:35;;;;;;;15.97;7.70;;;8.20;99.90;;;;;;4954934;28;37925;-74
2022/04/29 06:06:01;;;;;;;15.77;7.20;;;8.20;99.90;;;;;;4973161;28;38466;-74
2022/04/29 06:08:27;;;;;;;16.83;8.30;;;8.30;99.90;;;;;;4954614;28;46033;-73
2022/04/29 06:10:53;;;;;;;13.13;7.27;;;8.40;99.90;;;;;;4955091;28;40573;-74
2022/04/29 06:13:19;;;;;;;15.03;7.40;;;8.50;99.90;;;;;;4956731;28;37121;-74
2022/04/29 06:15:45;;;;;;;20.80;8.07;;;8.60;99.90;;;;;;4974620;28;38825;-74
2022/04/29 06:18:11;;;;;;;14.87;6.87;;;8.70;99.90;;;;;;4974632;28;38968;-74
2022/04/29 06:20:38;;;;;;;13.40;7.20;;;8.60;99.90;;;;;;4979575;28;38572;-74
2022/04/29 06:23:04;;;;;;;17.40;6.07;;;8.60;99.90;;;;;;4971579;28;36805;-74
2022/04/29 06:25:30;;;;;;;24.23;8.63;;;8.70;99.90;;;;;;4974063;28;40756;-72
2022/04/29 06:27:56;;;;;;;16.83;6.60;;;8.80;99.90;;;;;;4976243;28;38497;-73
2022/04/29 06:30:22;;;;;;;16.40;6.85;;;8.90;99.90;;;;;;4978700;28;38084;-73
2022/04/29 06:32:53;;;;;;;17.73;6.55;;;9.00;99.90;;;;;;4980029;28;37235;-73
2022/04/29 06:35:19;;;;;;;19.02;6.25;;;9.10;99.90;;;;;;4978674;28;39538;-71
2022/04/29 06:37:45;;;;;;;8.35;5.78;;;9.30;99.90;;;;;;4972322;28;39325;-71
2022/04/29 06:40:12;;;;;;;16.38;6.28;;;9.20;99.90;;;;;;4977739;28;38619;-71
2022/04/29 06:42:45;;;;;;;12.52;5.82;;;9.30;99.90;;;;;;4976624;28;38849;-72
2022/04/29 06:45:12;;;;;;;18.33;6.70;;;9.40;99.90;;;;;;4953895;28;38580;-71
2022/04/29 06:47:38;;;;;;;12.73;5.78;;;9.40;99.90;;;;;;4957656;28;38383;-72
2022/04/29 06:50:05;;;;;;;12.75;5.93;;;9.40;99.90;;;;;;4970622;28;38693;-72
2022/04/29 06:52:31;;;;;;;15.05;6.07;;;9.30;99.90;;;;;;4964017;28;37830;-72
2022/04/29 06:54:57;;;;;;;11.13;6.63;;;9.30;99.90;;;;;;4976044;28;38937;-72
2022/04/29 06:57:23;;;;;;;16.27;6.13;;;9.40;99.90;;;;;;4971068;28;39103;-72
2022/04/29 06:59:49;;;;;;;17.75;6.75;;;9.50;99.90;;;;;;4973249;28;38517;-72
2022/04/29 07:02:16;;;;;;;11.40;5.45;;;9.30;99.90;;;;;;4975047;28;37845;-71
2022/04/29 07:04:42;;;;;;;13.50;5.55;;;9.30;99.90;;;;;;4974204;28;40356;-72
2022/04/29 07:07:11;;;;;;;14.07;6.40;;;9.40;99.90;;;;;;4974743;28;39423;-72
2022/04/29 07:09:39;;;;;;;15.68;6.72;;;9.50;99.90;;;;;;4955542;28;39205;-72
2022/04/29 07:12:06;;;;;;;15.38;6.72;;;9.40;99.90;;;;;;4972750;28;37468;-72
2022/04/29 07:14:32;;;;;;;9.07;5.85;;;9.40;99.90;;;;;;4972621;28;38212;-72
2022/04/29 07:16:58;;;;;;;18.52;6.65;;;9.40;99.90;;;;;;4960224;28;39467;-72
2022/04/29 07:19:24;;;;;;;15.68;6.22;;;9.40;99.90;;;;;;4975640;28;37285;-72
2022/04/29 07:21:50;;;;;;;13.13;6.78;;;9.40;99.90;;;;;;4973897;28;35927;-71
2022/04/29 07:24:17;;;;;;;11.90;6.03;;;9.40;99.90;;;;;;4974743;28;38787;-72
2022/04/29 07:26:44;;;;;;;15.63;5.43;;;9.30;99.90;;;;;;4957844;28;39448;-71
2022/04/29 07:29:11;;;;;;;13.32;6.10;;;9.30;99.90;;;;;;4978996;28;39202;-71
2022/04/29 07:31:37;;;;;;;15.20;5.32;;;9.20;99.90;;;;;;4972108;28;37071;-71
2022/04/29 07:34:03;;;;;;;13.15;5.57;;;9.30;99.90;;;;;;4961163;28;40120;-72
2022/04/29 07:41:59;;;;;;;13.88;5.10;;;9.40;99.90;;;;;;4978285;28;37521;-71
2022/04/29 07:44:25;;;;;;;16.90;6.45;;;9.40;99.90;;;;;;4973916;28;39059;-72
2022/04/29 07:46:51;;;;;;;9.10;5.82;;;9.40;99.90;;;;;;4979237;28;39440;-72
2022/04/29 07:49:17;;;;;;;10.43;5.00;;;9.40;99.90;;;;;;4970874;28;40824;-72
2022/04/29 07:51:43;;;;;;;17.50;5.07;;;9.40;99.90;;;;;;4983913;28;36873;-72
2022/04/29 07:54:10;;;;;;;10.10;4.93;;;9.40;99.90;;;;;;4984623;28;39842;-72
2022/04/29 07:56:36;;;;;;;14.80;5.03;;;9.60;99.90;;;;;;4963837;28;39055;-72
2022/04/29 07:59:03;;;;;;;10.48;5.45;;;9.70;99.90;;;;;;4980641;28;39866;-72
2022/04/29 08:01:29;;;;;;;12.48;4.88;;;9.60;99.90;;;;;;4979264;28;36969;-72
2022/04/29 08:03:55;;;;;;;10.35;4.78;;;9.60;99.90;;;;;;4959233;28;38264;-72
2022/04/29 08:06:22;;;;;;;9.23;5.13;;;9.60;99.90;;;;;;4973541;28;39402;-73
2022/04/29 08:08:48;;;;;;;11.02;4.55;;;9.70;99.90;;;;;;4953878;28;38791;-74
2022/04/29 08:11:16;;;;;;;11.13;5.10;;;9.70;99.90;;;;;;4980284;28;37193;-74
2022/04/29 08:13:44;;;;;;;9.85;4.50;;;9.70;99.90;;;;;;4972654;28;39899;-74
2022/04/29 08:16:14;;;;;;;13.07;5.18;;;9.90;99.90;;;;;;4947353;28;39737;-74
2022/04/29 08:18:40;;;;;;;8.60;5.00;;;9.90;99.90;;;;;;4969383;28;40091;-74
2022/04/29 08:21:08;;;;;;;11.82;6.05;;;10.00;99.90;;;;;;4958055;28;39680;-75
2022/04/29 08:23:35;;;;;;;20.55;6.40;;;10.20;99.90;;;;;;4973023;28;40783;-74
2022/04/29 08:26:01;;;;;;;12.60;5.15;;;10.10;99.90;;;;;;4957736;28;37952;-74
2022/04/29 08:28:28;;;;;;;10.60;5.30;;;10.00;99.90;;;;;;4958669;28;46994;-74
2022/04/29 08:30:54;;;;;;;14.93;5.22;;;10.00;99.90;;;;;;4952270;28;38677;-74
2022/04/29 08:33:21;;;;;;;14.07;6.03;;;10.10;99.90;;;;;;4961023;28;40841;-74
2022/04/29 08:35:47;;;;;;;16.10;6.18;;;10.00;99.90;;;;;;4960433;28;39541;-74
2022/04/29 08:38:14;;;;;;;12.70;5.88;;;10.10;99.90;;;;;;4976148;28;36982;-74
2022/04/29 08:40:41;;;;;;;12.10;6.22;;;10.20;99.90;;;;;;4973072;28;37267;-74
2022/04/29 08:43:13;;;;;;;12.73;7.25;;;10.20;99.90;;;;;;4975785;28;38861;-73
2022/04/29 08:45:40;;;;;;;12.90;6.50;;;10.30;99.90;;;;;;4959078;28;40407;-77
2022/04/29 08:48:07;;;;;;;14.38;6.50;;;10.40;99.90;;;;;;4956664;28;40493;-74
2022/04/29 08:50:34;;;;;;;17.58;6.50;;;10.30;99.90;;;;;;4978800;28;37299;-75
2022/04/29 08:53:01;;;;;;;14.05;6.22;;;10.30;99.90;;;;;;4956656;28;39481;-75
2022/04/29 09:01:01;;;;;;;12.27;6.18;;;10.50;99.90;;;;;;4970449;28;37641;-74
2022/04/29 09:03:28;;;;;;;12.63;6.13;;;10.60;99.90;;;;;;4967466;28;47077;-77
2022/04/29 09:05:54;;;;;;;15.65;5.32;;;10.70;99.90;;;;;;4954047;28;39163;-76
2022/04/29 09:08:22;;;;;;;15.27;6.10;;;10.80;99.90;;;;;;4956305;28;39118;-77
2022/04/29 09:10:52;;;;;;;15.50;5.60;;;10.90;99.90;;;;;;4942058;28;37549;-78
2022/04/29 09:13:22;;;;;;;14.45;6.47;;;10.90;99.90;;;;;;4941632;28;42215;-77
2022/04/29 09:16:01;;;;;;;14.02;5.43;;;11.00;99.90;;;;;;4957015;28;39020;-78
2022/04/29 09:18:49;;;;;;;12.55;5.32;;;11.00;99.90;;;;;;4949985;28;47334;-78
2022/04/29 09:21:23;;;;;;;14.50;6.15;;;11.00;99.90;;;;;;4937449;28;39421;-78
2022/04/29 09:23:57;;;;;;;14.43;5.50;;;10.90;99.90;;;;;;4963285;28;38637;-75
2022/04/29 09:26:28;;;;;;;14.73;5.90;;;10.90;99.90;;;;;;4941614;28;38677;-74
2022/04/29 09:29:19;;;;;;;13.65;7.20;;;10.90;99.90;;;;;;4956662;28;37878;-76
2022/04/29 09:31:55;;;;;;;15.25;5.78;;;11.00;99.90;;;;;;4962500;28;48963;-76
2022/04/29 09:34:22;;;;;;;12.63;5.50;;;11.20;99.90;;;;;;4942163;28;37816;-75
2022/04/29 09:36:49;;;;;;;15.45;5.38;;;11.40;99.90;;;;;;4948980;28;39117;-75
2022/04/29 09:39:30;;;;;;;8.40;5.22;;;11.40;99.90;;;;;;4943561;28;39595;-76
2022/04/29 09:42:01;;;;;;;15.40;5.55;;;11.30;99.90;;;;;;4939376;28;36466;-76
2022/04/29 09:44:29;;;;;;;14.48;6.30;;;11.30;99.90;;;;;;4961326;28;48512;-77
2022/04/29 09:46:57;;;;;;;9.95;5.22;;;11.20;99.90;;;;;;4955689;28;38789;-76
2022/04/29 09:49:27;;;;;;;11.43;6.00;;;11.20;99.90;;;;;;4944793;28;38974;-76
2022/04/29 09:51:53;;;;;;;13.90;5.70;;;11.40;99.90;;;;;;4957369;28;37074;-77
2022/04/29 09:54:24;;;;;;;12.75;5.90;;;11.30;99.90;;;;;;4956462;28;38797;-77
2022/04/29 09:57:14;;;;;;;10.95;5.85;;;11.40;99.90;;;;;;4941114;28;39368;-76
2022/04/29 09:59:48;;;;;;;11.43;6.03;;;11.60;99.90;;;;;;4961709;28;48339;-78
2022/04/29 10:02:23;;;;;;;13.52;5.63;;;11.80;99.90;;;;;;4966933;28;36780;-78
2022/04/29 10:04:51;;;;;;;11.20;5.28;;;11.90;99.90;;;;;;4932881;28;40036;-77
2022/04/29 10:07:19;;;;;;;15.52;5.45;;;12.20;99.90;;;;;;4942045;28;40101;-78
2022/04/29 10:09:49;;;;;;;12.68;4.88;;;12.20;99.90;;;;;;4960945;28;38477;-77
2022/04/29 10:12:20;;;;;;;13.60;5.32;;;12.50;99.90;;;;;;4938529;28;37844;-78
2022/04/29 10:14:53;;;;;;;14.68;4.63;;;12.70;99.90;;;;;;4964920;28;38930;-77
2022/04/29 10:22:55;;;;;;;13.75;4.53;;;12.80;99.90;;;;;;4971751;28;37513;-78
2022/04/29 10:25:29;;;;;;;15.52;5.15;;;12.80;99.90;;;;;;4935396;28;39429;-78
2022/04/29 10:27:56;;;;;;;8.95;4.60;;;12.90;99.90;;;;;;4945849;28;37789;-78
2022/04/29 10:30:29;;;;;;;10.95;4.88;;;12.80;99.90;;;;;;4943984;28;38992;-79
2022/04/29 10:33:02;;;;;;;12.23;5.78;;;12.60;99.90;;;;;;4948935;28;37877;-78
2022/04/29 10:35:56;;;;;;;11.18;4.68;;;12.80;99.90;;;;;;4963767;28;47574;-79
2022/04/29 10:38:34;;;;;;;10.18;4.05;;;13.00;99.90;;;;;;4935282;28;38782;-79
2022/04/29 10:41:09;;;;;;;8.63;4.20;;;13.20;99.90;;;;;;4965481;28;38404;-78
2022/04/29 10:43:58;;;;;;;8.52;4.07;;;13.30;99.90;;;;;;4947006;28;47329;-76
2022/04/29 10:46:41;;;;;;;10.35;3.92;;;13.20;99.90;;;;;;4944617;28;40552;-77
2022/04/29 10:49:29;;;;;;;12.27;4.28;;;13.10;99.90;;;;;;4953320;28;38930;-79
2022/04/29 10:51:58;;;;;;;10.10;4.32;;;13.00;99.90;;;;;;4943960;28;40218;-77
2022/04/29 10:54:38;;;;;;;10.30;4.63;;;12.90;99.90;;;;;;4938272;28;36207;-77
2022/04/29 10:57:12;;;;;;;12.65;4.70;;;13.20;99.90;;;;;;4942336;28;38135;-78
2022/04/29 11:00:07;;;;;;;10.43;4.25;;;13.40;99.90;;;;;;4946778;28;37874;-77
2022/04/29 11:02:35;;;;;;;13.32;4.65;;;13.40;99.90;;;;;;4943456;28;47560;-77
2022/04/29 11:05:04;;;;;;;9.50;3.97;;;13.40;99.90;;;;;;4958843;28;37494;-79
2022/04/29 11:07:52;;;;;;;13.57;4.80;;;13.40;99.90;;;;;;4963138;28;37848;-76
2022/04/29 11:10:24;;;;;;;10.57;4.55;;;13.30;99.90;;;;;;4982884;28;37784;-77
2022/04/29 11:12:55;;;;;;;7.82;4.07;;;13.40;99.90;;;;;;4954717;28;37646;-77
2022/04/29 11:15:24;;;;;;;8.30;4.95;;;13.30;99.90;;;;;;4981649;28;37212;-77
2022/04/29 11:17:51;;;;;;;10.30;4.40;;;13.30;99.90;;;;;;4979423;28;38556;-76
2022/04/29 11:20:21;;;;;;;11.82;4.70;;;13.20;99.90;;;;;;4958173;28;37703;-77
2022/04/29 11:26:00;;;;;;;7.78;3.95;;;13.20;99.90;;;;;;4969467;28;49614;-77
2022/04/29 11:28:29;;;;;;;11.20;5.00;;;13.20;99.90;;;;;;4980213;28;47058;-77
2022/04/29 11:31:02;;;;;;;10.00;4.15;;;13.60;99.90;;;;;;4982093;28;38206;-75
2022/04/29 11:33:30;;;;;;;9.75;4.57;;;14.00;99.90;;;;;;4962423;28;47391;-76
2022/04/29 11:36:11;;;;;;;13.13;4.70;;;13.90;99.90;;;;;;4962965;28;37961;-77
2022/04/29 11:38:45;;;;;;;8.95;5.32;;;13.70;99.90;;;;;;4960685;28;47822;-77
2022/04/29 11:41:20;;;;;;;10.23;4.93;;;13.70;99.90;;;;;;4916503;28;37784;-77
2022/04/29 11:43:52;;;;;;;7.00;4.70;;;13.90;99.90;;;;;;4977999;28;37735;-77
2022/04/29 11:46:21;;;;;;;14.52;5.68;;;14.20;99.90;;;;;;4976437;28;36710;-77
2022/04/29 11:48:59;;;;;;;8.93;4.70;;;14.40;99.90;;;;;;4957428;28;40501;-75
2022/04/29 11:51:29;;;;;;;10.95;4.60;;;14.60;99.90;;;;;;4945310;28;38958;-75
2022/04/29 11:54:04;;;;;;;11.52;4.70;;;14.90;99.90;;;;;;4970531;28;38802;-75
2022/04/29 11:56:42;;;;;;;10.50;5.07;;;14.90;99.90;;;;;;4967312;28;47356;-74
2022/04/29 11:59:11;;;;;;;8.68;4.90;;;14.50;99.90;;;;;;4979539;28;38791;-74
2022/04/29 12:01:40;;;;;;;8.95;4.75;;;14.60;99.90;;;;;;4967428;28;39108;-75
2022/04/29 12:04:11;;;;;;;12.30;5.03;;;15.10;99.90;;;;;;4956436;28;38347;-75
2022/04/29 12:06:55;;;;;;;9.10;4.53;;;15.40;99.90;;;;;;4961047;28;37355;-76
2022/04/29 12:09:31;;;;;;;10.05;4.72;;;15.40;99.90;;;;;;4970437;28;37865;-75
2022/04/29 12:11:59;;;;;;;13.38;4.70;;;14.90;99.90;;;;;;4957459;28;37744;-75
2022/04/29 12:14:26;;;;;;;8.73;4.70;;;14.80;99.90;;;;;;4956674;28;38049;-75
2022/04/29 12:16:53;;;;;;;7.93;4.57;;;14.80;99.90;;;;;;4965074;28;36682;-75
2022/04/29 12:19:21;;;;;;;7.50;4.25;;;14.90;99.90;;;;;;4956099;28;39970;-76
2022/04/29 12:21:56;;;;;;;9.07;4.85;;;15.20;99.90;;;;;;4943394;28;37893;-75
2022/04/29 12:24:26;;;;;;;9.05;4.47;;;15.20;99.90;;;;;;4968956;28;37844;-74
2022/04/29 12:27:07;;;;;;;7.90;4.80;;;15.10;99.90;;;;;;4942240;28;36468;-74
2022/04/29 12:34:48;;;;;;;11.43;5.20;;;15.30;99.90;;;;;;4957598;28;47543;-74
2022/04/29 12:35:24;;;;;;;6.13;4.60;;;15.10;99.90;;;;;;4899721;28;39015;-75
2022/04/29 12:37:53;;;;;;;7.88;4.35;;;14.80;99.90;;;;;;4960321;28;37567;-75
2022/04/29 12:40:30;;;;;;;11.43;4.55;;;15.20;99.90;;;;;;4963556;28;37940;-74
2022/04/29 12:43:12;;;;;;;9.05;4.68;;;15.20;99.90;;;;;;4958813;28;37916;-73
2022/04/29 12:45:41;;;;;;;10.68;4.95;;;15.30;99.90;;;;;;4969191;28;48893;-75
2022/04/29 12:48:11;;;;;;;6.10;4.43;;;15.40;99.90;;;;;;4975048;28;36735;-74
2022/04/29 12:50:41;;;;;;;10.80;4.20;;;15.60;99.90;;;;;;4961180;28;38057;-75
2022/04/29 12:53:09;;;;;;;9.63;4.82;;;15.80;99.90;;;;;;4973509;28;39299;-75
2022/04/29 12:55:42;;;;;;;10.85;4.90;;;16.10;99.90;;;;;;4974548;28;38387;-76
2022/04/29 12:58:14;;;;;;;6.97;4.60;;;16.00;99.90;;;;;;4972138;28;37183;-75
2022/04/29 13:00:42;;;;;;;10.50;4.63;;;16.00;99.90;;;;;;4973374;28;39375;-76
2022/04/29 13:03:18;;;;;;;7.60;4.80;;;15.80;99.90;;;;;;4972432;28;39643;-76
2022/04/29 13:05:44;;;;;;;8.27;4.65;;;15.70;99.90;;;;;;4944688;28;37218;-75
2022/04/29 13:08:12;;;;;;;9.35;4.57;;;15.70;99.90;;;;;;4968132;28;37303;-76
2022/04/29 13:10:58;;;;;;;11.20;4.70;;;15.80;99.90;;;;;;4956845;28;39526;-76
2022/04/29 13:13:26;;;;;;;7.80;4.30;;;16.30;99.90;;;;;;4969261;28;41279;-76
2022/04/29 13:15:52;;;;;;;9.20;5.95;;;16.50;99.90;;;;;;4968930;28;39432;-75
2022/04/29 13:18:19;;;;;;;10.98;4.57;;;16.80;99.90;;;;;;4974844;28;37278;-76
2022/04/29 13:20:47;;;;;;;6.95;4.13;;;16.70;99.90;;;;;;4975133;28;38598;-76